sensor_id;sensor_type;location;lat;lon;timestamp;temperature;humidity
7317;DHT22;3699;51.462;6.696;2022-09-30T00:01:02;7.30;99.90
7317;DHT22;3699;51.462;6.696;2022-09-30T00:03:30;7.30;99.90
7317;DHT22;3699;51.462;6.696;2022-09-30T00:05:57;7.30;99.90
7317;DHT22;3699;51.462;6.696;2022-09-30T00:08:24;7.30;99.90
7317;DHT22;3699;51.462;6.696;2022-09-30T00:11:01;7.30;99.90
7317;DHT22;3699;51.462;6.696;2022-09-30T00:13:28;7.30;99.90
7317;DHT22;3699;51.462;6.696;2022-09-30T00:15:55;7.30;99.90
7317;DHT22;3699;51.462;6.696;2022-09-30T00:18:22;7.20;99.90
7317;DHT22;3699;51.462;6.696;2022-09-30T00:20:50;7.20;99.90
7317;DHT22;3699;51.462;6.696;2022-09-30T00:23:17;7.20;99.90
7317;DHT22;3699;51.462;6.696;2022-09-30T00:25:44;7.20;99.90
7317;DHT22;3699;51.462;6.696;2022-09-30T00:28:10;7.20;99.90
7317;DHT22;3699;51.462;6.696;2022-09-30T00:30:37;7.20;99.90
7317;DHT22;3699;51.462;6.696;2022-09-30T00:33:04;7.10;99.90
7317;DHT22;3699;51.462;6.696;2022-09-30T00:35:30;7.20;99.90
7317;DHT22;3699;51.462;6.696;2022-09-30T00:37:59;7.10;99.90
7317;DHT22;3699;51.462;6.696;2022-09-30T00:40:26;7.10;99.90
7317;DHT22;3699;51.462;6.696;2022-09-30T00:42:54;7.10;99.90
7317;DHT22;3699;51.462;6.696;2022-09-30T00:47:50;7.10;99.90
7317;DHT22;3699;51.462;6.696;2022-09-30T00:50:31;7.00;99.90
7317;DHT22;3699;51.462;6.696;2022-09-30T00:53:06;7.00;99.90
7317;DHT22;3699;51.462;6.696;2022-09-30T00:55:48;7.00;99.90
7317;DHT22;3699;51.462;6.696;2022-09-30T00:58:18;7.00;99.90
7317;DHT22;3699;51.462;6.696;2022-09-30T01:00:47;7.00;99.90
7317;DHT22;3699;51.462;6.696;2022-09-30T01:03:15;6.90;99.90
7317;DHT22;3699;51.462;6.696;2022-09-30T01:05:42;6.80;99.90
7317;DHT22;3699;51.462;6.696;2022-09-30T01:08:10;6.90;99.90
7317;DHT22;3699;51.462;6.696;2022-09-30T01:10:37;7.00;99.90
7317;DHT22;3699;51.462;6.696;2022-09-30T01:13:05;6.90;99.90
7317;DHT22;3699;51.462;6.696;2022-09-30T01:15:45;6.90;99.90
7317;DHT22;3699;51.462;6.696;2022-09-30T01:18:22;6.90;99.90
7317;DHT22;3699;51.462;6.696;2022-09-30T01:21:07;6.90;99.90
7317;DHT22;3699;51.462;6.696;2022-09-30T01:24:12;6.90;99.90
7317;DHT22;3699;51.462;6.696;2022-09-30T01:26:54;6.90;99.90
7317;DHT22;3699;51.462;6.696;2022-09-30T01:32:40;6.90;99.90
7317;DHT22;3699;51.462;6.696;2022-09-30T01:35:17;6.90;99.90
7317;DHT22;3699;51.462;6.696;2022-09-30T01:38:02;6.90;99.90
7317;DHT22;3699;51.462;6.696;2022-09-30T01:40:39;6.90;99.90
7317;DHT22;3699;51.462;6.696;2022-09-30T01:43:11;6.80;99.90
7317;DHT22;3699;51.462;6.696;2022-09-30T01:45:42;6.80;99.90
7317;DHT22;3699;51.462;6.696;2022-09-30T01:48:17;6.90;99.90
7317;DHT22;3699;51.462;6.696;2022-09-30T01:50:51;6.90;99.90
7317;DHT22;3699;51.462;6.696;2022-09-30T01:53:24;6.90;99.90
7317;DHT22;3699;51.462;6.696;2022-09-30T01:55:58;6.90;99.90
7317;DHT22;3699;51.462;6.696;2022-09-30T01:58:35;6.90;99.90
7317;DHT22;3699;51.462;6.696;2022-09-30T02:01:07;6.90;99.90
7317;DHT22;3699;51.462;6.696;2022-09-30T02:03:40;6.90;99.90
7317;DHT22;3699;51.462;6.696;2022-09-30T02:06:11;6.90;99.90
7317;DHT22;3699;51.462;6.696;2022-09-30T02:08:40;6.90;99.90
7317;DHT22;3699;51.462;6.696;2022-09-30T02:11:14;6.90;99.90
7317;DHT22;3699;51.462;6.696;2022-09-30T02:13:44;6.90;99.90
7317;DHT22;3699;51.462;6.696;2022-09-30T02:16:17;6.90;99.90
7317;DHT22;3699;51.462;6.696;2022-09-30T02:18:49;6.90;99.90
7317;DHT22;3699;51.462;6.696;2022-09-30T02:21:18;6.90;99.90
7317;DHT22;3699;51.462;6.696;2022-09-30T02:23:47;6.90;99.90
7317;DHT22;3699;51.462;6.696;2022-09-30T02:26:18;6.90;99.90
7317;DHT22;3699;51.462;6.696;2022-09-30T02:28:49;6.90;99.90
7317;DHT22;3699;51.462;6.696;2022-09-30T02:31:20;6.90;99.90
7317;DHT22;3699;51.462;6.696;2022-09-30T02:33:52;6.90;99.90
7317;DHT22;3699;51.462;6.696;2022-09-30T02:36:25;6.90;99.90
7317;DHT22;3699;51.462;6.696;2022-09-30T02:38:58;7.10;99.90
7317;DHT22;3699;51.462;6.696;2022-09-30T02:41:28;7.00;99.90
7317;DHT22;3699;51.462;6.696;2022-09-30T02:43:56;7.00;99.90
7317;DHT22;3699;51.462;6.696;2022-09-30T02:46:29;7.00;99.90
7317;DHT22;3699;51.462;6.696;2022-09-30T02:49:04;6.90;99.90
7317;DHT22;3699;51.462;6.696;2022-09-30T02:51:39;6.90;99.90
7317;DHT22;3699;51.462;6.696;2022-09-30T02:54:16;6.90;99.90
7317;DHT22;3699;51.462;6.696;2022-09-30T02:56:52;6.80;99.90
7317;DHT22;3699;51.462;6.696;2022-09-30T02:59:20;6.80;99.90
7317;DHT22;3699;51.462;6.696;2022-09-30T03:01:48;6.90;99.90
7317;DHT22;3699;51.462;6.696;2022-09-30T03:04:20;6.80;99.90
7317;DHT22;3699;51.462;6.696;2022-09-30T03:06:47;6.80;99.90
7317;DHT22;3699;51.462;6.696;2022-09-30T03:09:14;6.80;99.90
7317;DHT22;3699;51.462;6.696;2022-09-30T03:11:41;6.80;99.90
7317;DHT22;3699;51.462;6.696;2022-09-30T03:14:27;6.70;99.90
7317;DHT22;3699;51.462;6.696;2022-09-30T03:17:15;6.80;99.90
7317;DHT22;3699;51.462;6.696;2022-09-30T03:20:01;6.70;99.90
7317;DHT22;3699;51.462;6.696;2022-09-30T03:22:46;6.80;99.90
7317;DHT22;3699;51.462;6.696;2022-09-30T03:25:27;6.80;99.90
7317;DHT22;3699;51.462;6.696;2022-09-30T03:28:06;6.80;99.90
7317;DHT22;3699;51.462;6.696;2022-09-30T03:30:44;6.80;99.90
7317;DHT22;3699;51.462;6.696;2022-09-30T03:33:19;6.80;99.90
7317;DHT22;3699;51.462;6.696;2022-09-30T03:35:54;6.80;99.90
7317;DHT22;3699;51.462;6.696;2022-09-30T03:38:31;6.90;99.90
7317;DHT22;3699;51.462;6.696;2022-09-30T03:41:06;6.80;99.90
7317;DHT22;3699;51.462;6.696;2022-09-30T03:43:37;6.90;99.90
7317;DHT22;3699;51.462;6.696;2022-09-30T03:46:14;6.90;99.90
7317;DHT22;3699;51.462;6.696;2022-09-30T03:48:43;6.90;99.90
7317;DHT22;3699;51.462;6.696;2022-09-30T03:51:14;6.90;99.90
7317;DHT22;3699;51.462;6.696;2022-09-30T03:53:42;7.00;99.90
7317;DHT22;3699;51.462;6.696;2022-09-30T03:56:11;7.00;99.90
7317;DHT22;3699;51.462;6.696;2022-09-30T03:58:40;7.00;99.90
7317;DHT22;3699;51.462;6.696;2022-09-30T04:01:15;7.00;99.90
7317;DHT22;3699;51.462;6.696;2022-09-30T04:03:43;7.10;99.90
7317;DHT22;3699;51.462;6.696;2022-09-30T04:06:13;7.00;99.90
7317;DHT22;3699;51.462;6.696;2022-09-30T04:08:40;7.00;99.90
7317;DHT22;3699;51.462;6.696;2022-09-30T04:11:06;7.00;99.90
7317;DHT22;3699;51.462;6.696;2022-09-30T04:13:33;7.00;99.90
7317;DHT22;3699;51.462;6.696;2022-09-30T04:16:00;7.00;99.90
7317;DHT22;3699;51.462;6.696;2022-09-30T04:18:27;7.00;99.90
7317;DHT22;3699;51.462;6.696;2022-09-30T04:20:55;6.90;99.90
7317;DHT22;3699;51.462;6.696;2022-09-30T04:23:23;6.90;99.90
7317;DHT22;3699;51.462;6.696;2022-09-30T04:25:51;6.90;99.90
7317;DHT22;3699;51.462;6.696;2022-09-30T04:28:18;6.90;99.90
7317;DHT22;3699;51.462;6.696;2022-09-30T04:30:45;6.80;99.90
7317;DHT22;3699;51.462;6.696;2022-09-30T04:33:11;6.80;99.90
7317;DHT22;3699;51.462;6.696;2022-09-30T04:35:38;6.80;99.90
7317;DHT22;3699;51.462;6.696;2022-09-30T04:38:05;6.80;99.90
7317;DHT22;3699;51.462;6.696;2022-09-30T04:40:35;6.80;99.90
7317;DHT22;3699;51.462;6.696;2022-09-30T04:43:01;6.80;99.90
7317;DHT22;3699;51.462;6.696;2022-09-30T04:45:28;6.80;99.90
7317;DHT22;3699;51.462;6.696;2022-09-30T04:47:55;6.80;99.90
7317;DHT22;3699;51.462;6.696;2022-09-30T04:50:22;6.80;99.90
7317;DHT22;3699;51.462;6.696;2022-09-30T04:52:48;6.80;99.90
7317;DHT22;3699;51.462;6.696;2022-09-30T04:55:15;6.80;99.90
7317;DHT22;3699;51.462;6.696;2022-09-30T04:57:44;6.80;99.90
7317;DHT22;3699;51.462;6.696;2022-09-30T05:00:11;6.70;99.90
7317;DHT22;3699;51.462;6.696;2022-09-30T05:02:38;6.70;99.90
7317;DHT22;3699;51.462;6.696;2022-09-30T05:05:05;6.70;99.90
7317;DHT22;3699;51.462;6.696;2022-09-30T05:07:32;6.70;99.90
7317;DHT22;3699;51.462;6.696;2022-09-30T05:09:59;6.70;99.90
7317;DHT22;3699;51.462;6.696;2022-09-30T05:12:26;6.70;99.90
7317;DHT22;3699;51.462;6.696;2022-09-30T05:14:54;6.60;99.90
7317;DHT22;3699;51.462;6.696;2022-09-30T05:17:20;6.60;99.90
7317;DHT22;3699;51.462;6.696;2022-09-30T05:19:47;6.60;99.90
7317;DHT22;3699;51.462;6.696;2022-09-30T05:22:14;6.60;99.90
7317;DHT22;3699;51.462;6.696;2022-09-30T05:24:41;6.60;99.90
7317;DHT22;3699;51.462;6.696;2022-09-30T05:27:08;6.60;99.90
7317;DHT22;3699;51.462;6.696;2022-09-30T05:29:34;6.60;99.90
7317;DHT22;3699;51.462;6.696;2022-09-30T05:32:02;6.70;99.90
7317;DHT22;3699;51.462;6.696;2022-09-30T05:34:30;6.70;99.90
7317;DHT22;3699;51.462;6.696;2022-09-30T05:36:56;6.70;99.90
7317;DHT22;3699;51.462;6.696;2022-09-30T05:39:23;6.70;99.90
7317;DHT22;3699;51.462;6.696;2022-09-30T05:41:50;6.70;99.90
7317;DHT22;3699;51.462;6.696;2022-09-30T05:44:16;6.70;99.90
7317;DHT22;3699;51.462;6.696;2022-09-30T05:46:43;6.80;99.90
7317;DHT22;3699;51.462;6.696;2022-09-30T05:49:12;6.70;99.90
7317;DHT22;3699;51.462;6.696;2022-09-30T05:51:38;6.70;99.90
7317;DHT22;3699;51.462;6.696;2022-09-30T05:54:05;6.70;99.90
7317;DHT22;3699;51.462;6.696;2022-09-30T05:56:32;6.80;99.90
7317;DHT22;3699;51.462;6.696;2022-09-30T05:59:00;6.80;99.90
7317;DHT22;3699;51.462;6.696;2022-09-30T06:01:27;6.80;99.90
7317;DHT22;3699;51.462;6.696;2022-09-30T06:03:53;6.80;99.90
7317;DHT22;3699;51.462;6.696;2022-09-30T06:06:21;6.80;99.90
7317;DHT22;3699;51.462;6.696;2022-09-30T06:08:48;6.80;99.90
7317;DHT22;3699;51.462;6.696;2022-09-30T06:11:17;6.90;99.90
7317;DHT22;3699;51.462;6.696;2022-09-30T06:13:45;6.90;99.90
7317;DHT22;3699;51.462;6.696;2022-09-30T06:16:14;6.90;99.90
7317;DHT22;3699;51.462;6.696;2022-09-30T06:18:42;7.00;99.90
7317;DHT22;3699;51.462;6.696;2022-09-30T06:21:11;7.00;99.90
7317;DHT22;3699;51.462;6.696;2022-09-30T06:23:40;7.10;99.90
7317;DHT22;3699;51.462;6.696;2022-09-30T06:26:09;7.20;99.90
7317;DHT22;3699;51.462;6.696;2022-09-30T06:28:38;7.30;99.90
7317;DHT22;3699;51.462;6.696;2022-09-30T06:31:05;7.40;99.90
7317;DHT22;3699;51.462;6.696;2022-09-30T06:33:33;7.50;99.90
7317;DHT22;3699;51.462;6.696;2022-09-30T06:36:00;7.70;99.90
7317;DHT22;3699;51.462;6.696;2022-09-30T06:38:29;7.80;99.90
7317;DHT22;3699;51.462;6.696;2022-09-30T06:40:57;8.00;99.90
7317;DHT22;3699;51.462;6.696;2022-09-30T06:43:24;8.10;99.90
7317;DHT22;3699;51.462;6.696;2022-09-30T06:45:51;8.30;99.90
7317;DHT22;3699;51.462;6.696;2022-09-30T06:48:18;8.40;99.90
7317;DHT22;3699;51.462;6.696;2022-09-30T06:50:46;8.60;99.90
7317;DHT22;3699;51.462;6.696;2022-09-30T06:53:13;8.80;99.90
7317;DHT22;3699;51.462;6.696;2022-09-30T06:55:40;9.00;99.90
7317;DHT22;3699;51.462;6.696;2022-09-30T06:58:13;9.10;99.90
7317;DHT22;3699;51.462;6.696;2022-09-30T07:00:40;9.30;99.90
7317;DHT22;3699;51.462;6.696;2022-09-30T07:03:19;9.40;99.90
7317;DHT22;3699;51.462;6.696;2022-09-30T07:05:54;9.60;99.90
7317;DHT22;3699;51.462;6.696;2022-09-30T07:08:21;9.80;99.90
7317;DHT22;3699;51.462;6.696;2022-09-30T07:10:50;10.00;99.90
7317;DHT22;3699;51.462;6.696;2022-09-30T07:13:18;10.30;99.90
7317;DHT22;3699;51.462;6.696;2022-09-30T07:15:45;10.60;99.90
7317;DHT22;3699;51.462;6.696;2022-09-30T07:18:12;10.90;99.90
7317;DHT22;3699;51.462;6.696;2022-09-30T07:20:38;11.20;99.90
7317;DHT22;3699;51.462;6.696;2022-09-30T07:23:05;11.40;99.90
7317;DHT22;3699;51.462;6.696;2022-09-30T07:25:32;11.50;99.90
7317;DHT22;3699;51.462;6.696;2022-09-30T07:27:59;11.60;99.90
7317;DHT22;3699;51.462;6.696;2022-09-30T07:30:27;11.80;99.90
7317;DHT22;3699;51.462;6.696;2022-09-30T07:32:55;11.90;99.90
7317;DHT22;3699;51.462;6.696;2022-09-30T07:35:22;12.10;99.90
7317;DHT22;3699;51.462;6.696;2022-09-30T07:37:49;12.30;99.90
7317;DHT22;3699;51.462;6.696;2022-09-30T07:40:15;12.60;99.90
7317;DHT22;3699;51.462;6.696;2022-09-30T07:42:42;12.80;99.90
7317;DHT22;3699;51.462;6.696;2022-09-30T07:45:10;13.10;99.90
7317;DHT22;3699;51.462;6.696;2022-09-30T07:47:42;13.20;99.90
7317;DHT22;3699;51.462;6.696;2022-09-30T07:50:09;13.40;99.90
7317;DHT22;3699;51.462;6.696;2022-09-30T07:52:40;13.70;99.90
7317;DHT22;3699;51.462;6.696;2022-09-30T07:55:07;13.70;99.90
7317;DHT22;3699;51.462;6.696;2022-09-30T07:57:33;13.70;99.90
7317;DHT22;3699;51.462;6.696;2022-09-30T08:00:00;13.70;99.90
7317;DHT22;3699;51.462;6.696;2022-09-30T08:02:27;13.70;99.90
7317;DHT22;3699;51.462;6.696;2022-09-30T08:04:55;13.80;99.90
7317;DHT22;3699;51.462;6.696;2022-09-30T08:07:22;13.70;99.90
7317;DHT22;3699;51.462;6.696;2022-09-30T08:09:48;13.70;99.90
7317;DHT22;3699;51.462;6.696;2022-09-30T08:12:15;13.70;99.90
7317;DHT22;3699;51.462;6.696;2022-09-30T08:14:42;13.70;99.90
7317;DHT22;3699;51.462;6.696;2022-09-30T08:17:09;13.70;99.90
7317;DHT22;3699;51.462;6.696;2022-09-30T08:19:36;13.70;99.90
7317;DHT22;3699;51.462;6.696;2022-09-30T08:22:07;13.70;99.90
7317;DHT22;3699;51.462;6.696;2022-09-30T08:24:35;13.80;99.90
7317;DHT22;3699;51.462;6.696;2022-09-30T08:27:01;13.80;99.90
7317;DHT22;3699;51.462;6.696;2022-09-30T08:29:28;13.90;99.90
7317;DHT22;3699;51.462;6.696;2022-09-30T08:31:55;13.90;99.90
7317;DHT22;3699;51.462;6.696;2022-09-30T08:34:22;14.00;99.90
7317;DHT22;3699;51.462;6.696;2022-09-30T08:36:49;14.10;99.90
7317;DHT22;3699;51.462;6.696;2022-09-30T08:39:17;14.10;99.90
7317;DHT22;3699;51.462;6.696;2022-09-30T08:41:55;14.20;99.90
7317;DHT22;3699;51.462;6.696;2022-09-30T08:44:33;14.30;99.90
7317;DHT22;3699;51.462;6.696;2022-09-30T08:47:11;14.50;99.90
7317;DHT22;3699;51.462;6.696;2022-09-30T08:49:48;14.60;99.90
7317;DHT22;3699;51.462;6.696;2022-09-30T08:52:21;14.60;99.90
7317;DHT22;3699;51.462;6.696;2022-09-30T08:54:53;14.80;99.90
7317;DHT22;3699;51.462;6.696;2022-09-30T08:57:22;14.80;99.90
7317;DHT22;3699;51.462;6.696;2022-09-30T08:59:52;14.90;99.90
7317;DHT22;3699;51.462;6.696;2022-09-30T09:02:23;15.00;99.90
7317;DHT22;3699;51.462;6.696;2022-09-30T09:04:53;15.20;99.90
7317;DHT22;3699;51.462;6.696;2022-09-30T09:07:32;15.30;99.90
7317;DHT22;3699;51.462;6.696;2022-09-30T09:10:14;15.30;99.90
7317;DHT22;3699;51.462;6.696;2022-09-30T09:12:49;15.40;99.90
7317;DHT22;3699;51.462;6.696;2022-09-30T09:15:40;15.50;99.90
7317;DHT22;3699;51.462;6.696;2022-09-30T09:18:40;15.60;99.90
7317;DHT22;3699;51.462;6.696;2022-09-30T09:21:19;15.70;99.90
7317;DHT22;3699;51.462;6.696;2022-09-30T09:23:48;15.70;99.90
7317;DHT22;3699;51.462;6.696;2022-09-30T09:26:16;15.70;99.90
7317;DHT22;3699;51.462;6.696;2022-09-30T09:28:51;15.70;99.90
7317;DHT22;3699;51.462;6.696;2022-09-30T09:31:22;15.90;99.90
7317;DHT22;3699;51.462;6.696;2022-09-30T09:33:50;16.00;99.90
7317;DHT22;3699;51.462;6.696;2022-09-30T09:36:33;16.10;99.90
7317;DHT22;3699;51.462;6.696;2022-09-30T09:39:11;16.20;99.90
7317;DHT22;3699;51.462;6.696;2022-09-30T09:41:48;16.30;99.90
7317;DHT22;3699;51.462;6.696;2022-09-30T09:44:23;16.40;99.90
7317;DHT22;3699;51.462;6.696;2022-09-30T09:46:59;16.50;99.90
7317;DHT22;3699;51.462;6.696;2022-09-30T09:49:31;16.40;99.90
7317;DHT22;3699;51.462;6.696;2022-09-30T09:52:26;16.60;99.90
7317;DHT22;3699;51.462;6.696;2022-09-30T09:54:55;16.60;99.90
7317;DHT22;3699;51.462;6.696;2022-09-30T09:57:25;16.70;99.90
7317;DHT22;3699;51.462;6.696;2022-09-30T09:59:58;16.70;99.90
7317;DHT22;3699;51.462;6.696;2022-09-30T10:02:27;16.80;99.90
7317;DHT22;3699;51.462;6.696;2022-09-30T10:04:54;16.90;99.90
7317;DHT22;3699;51.462;6.696;2022-09-30T10:07:28;17.00;99.90
7317;DHT22;3699;51.462;6.696;2022-09-30T10:10:15;17.00;99.90
7317;DHT22;3699;51.462;6.696;2022-09-30T10:12:44;17.00;99.90
7317;DHT22;3699;51.462;6.696;2022-09-30T10:15:20;17.00;99.90
7317;DHT22;3699;51.462;6.696;2022-09-30T10:17:52;17.10;99.90
7317;DHT22;3699;51.462;6.696;2022-09-30T10:20:26;17.10;99.90
7317;DHT22;3699;51.462;6.696;2022-09-30T10:23:00;17.10;99.90
7317;DHT22;3699;51.462;6.696;2022-09-30T10:25:28;17.10;99.90
7317;DHT22;3699;51.462;6.696;2022-09-30T10:27:58;17.10;99.90
7317;DHT22;3699;51.462;6.696;2022-09-30T10:30:33;17.20;99.90
7317;DHT22;3699;51.462;6.696;2022-09-30T10:33:02;17.20;99.90
7317;DHT22;3699;51.462;6.696;2022-09-30T10:35:29;17.30;99.90
7317;DHT22;3699;51.462;6.696;2022-09-30T10:37:58;17.40;99.90
7317;DHT22;3699;51.462;6.696;2022-09-30T10:40:27;17.50;99.90
7317;DHT22;3699;51.462;6.696;2022-09-30T10:42:55;17.40;99.90
7317;DHT22;3699;51.462;6.696;2022-09-30T10:45:25;17.40;99.90
7317;DHT22;3699;51.462;6.696;2022-09-30T10:47:55;17.40;99.90
7317;DHT22;3699;51.462;6.696;2022-09-30T10:50:24;17.50;99.90
7317;DHT22;3699;51.462;6.696;2022-09-30T10:52:55;17.60;99.90
7317;DHT22;3699;51.462;6.696;2022-09-30T10:55:27;17.80;99.90
7317;DHT22;3699;51.462;6.696;2022-09-30T10:57:57;17.90;99.90
7317;DHT22;3699;51.462;6.696;2022-09-30T11:00:30;17.90;99.90
7317;DHT22;3699;51.462;6.696;2022-09-30T11:03:02;17.90;99.90
7317;DHT22;3699;51.462;6.696;2022-09-30T11:05:34;17.90;99.90
7317;DHT22;3699;51.462;6.696;2022-09-30T11:08:04;17.90;99.90
7317;DHT22;3699;51.462;6.696;2022-09-30T11:10:40;17.90;99.90
7317;DHT22;3699;51.462;6.696;2022-09-30T11:13:12;18.00;99.90
7317;DHT22;3699;51.462;6.696;2022-09-30T11:15:51;18.00;99.90
7317;DHT22;3699;51.462;6.696;2022-09-30T11:18:28;18.10;99.90
7317;DHT22;3699;51.462;6.696;2022-09-30T11:20:59;18.20;99.90
7317;DHT22;3699;51.462;6.696;2022-09-30T11:23:31;18.30;99.90
7317;DHT22;3699;51.462;6.696;2022-09-30T11:26:02;18.10;99.90
7317;DHT22;3699;51.462;6.696;2022-09-30T11:28:54;18.00;99.90
7317;DHT22;3699;51.462;6.696;2022-09-30T11:31:30;18.00;99.90
7317;DHT22;3699;51.462;6.696;2022-09-30T11:34:20;17.90;99.90
7317;DHT22;3699;51.462;6.696;2022-09-30T11:36:58;17.90;99.90
7317;DHT22;3699;51.462;6.696;2022-09-30T11:39:42;17.90;99.90
7317;DHT22;3699;51.462;6.696;2022-09-30T11:42:18;18.00;99.90
7317;DHT22;3699;51.462;6.696;2022-09-30T11:44:52;18.20;99.90
7317;DHT22;3699;51.462;6.696;2022-09-30T11:47:38;18.40;99.90
7317;DHT22;3699;51.462;6.696;2022-09-30T11:50:27;18.50;99.90
7317;DHT22;3699;51.462;6.696;2022-09-30T11:53:07;18.60;99.90
7317;DHT22;3699;51.462;6.696;2022-09-30T11:56:01;18.80;99.90
7317;DHT22;3699;51.462;6.696;2022-09-30T11:58:34;18.80;99.90
7317;DHT22;3699;51.462;6.696;2022-09-30T12:01:18;18.90;99.90
7317;DHT22;3699;51.462;6.696;2022-09-30T12:03:53;19.00;99.90
7317;DHT22;3699;51.462;6.696;2022-09-30T12:06:27;19.10;99.90
7317;DHT22;3699;51.462;6.696;2022-09-30T12:09:00;18.90;99.90
7317;DHT22;3699;51.462;6.696;2022-09-30T12:11:35;18.80;99.90
7317;DHT22;3699;51.462;6.696;2022-09-30T12:14:06;18.80;99.90
7317;DHT22;3699;51.462;6.696;2022-09-30T12:16:36;18.50;99.90
7317;DHT22;3699;51.462;6.696;2022-09-30T12:19:15;18.50;99.90
7317;DHT22;3699;51.462;6.696;2022-09-30T12:21:49;18.40;99.90
7317;DHT22;3699;51.462;6.696;2022-09-30T12:24:23;18.40;99.90
7317;DHT22;3699;51.462;6.696;2022-09-30T12:26:51;18.30;99.90
7317;DHT22;3699;51.462;6.696;2022-09-30T12:29:21;18.30;99.90
7317;DHT22;3699;51.462;6.696;2022-09-30T12:32:32;18.30;99.90
7317;DHT22;3699;51.462;6.696;2022-09-30T12:35:15;18.30;99.90
7317;DHT22;3699;51.462;6.696;2022-09-30T12:37:55;18.30;99.90
7317;DHT22;3699;51.462;6.696;2022-09-30T12:40:51;18.30;99.90
7317;DHT22;3699;51.462;6.696;2022-09-30T12:43:46;18.40;99.90
7317;DHT22;3699;51.462;6.696;2022-09-30T12:46:24;18.30;99.90
7317;DHT22;3699;51.462;6.696;2022-09-30T12:48:54;18.40;99.90
7317;DHT22;3699;51.462;6.696;2022-09-30T12:51:29;18.40;99.90
7317;DHT22;3699;51.462;6.696;2022-09-30T12:53:59;18.40;99.90
7317;DHT22;3699;51.462;6.696;2022-09-30T12:56:28;18.40;99.90
7317;DHT22;3699;51.462;6.696;2022-09-30T12:58:56;18.40;99.90
7317;DHT22;3699;51.462;6.696;2022-09-30T13:01:26;18.40;99.90
7317;DHT22;3699;51.462;6.696;2022-09-30T13:04:17;18.40;99.90
7317;DHT22;3699;51.462;6.696;2022-09-30T13:07:15;18.40;99.90
7317;DHT22;3699;51.462;6.696;2022-09-30T13:09:58;18.40;99.90
7317;DHT22;3699;51.462;6.696;2022-09-30T13:12:28;18.30;99.60
7317;DHT22;3699;51.462;6.696;2022-09-30T13:15:24;18.40;99.90
7317;DHT22;3699;51.462;6.696;2022-09-30T13:21:23;18.30;99.90
7317;DHT22;3699;51.462;6.696;2022-09-30T13:23:52;18.20;98.90
7317;DHT22;3699;51.462;6.696;2022-09-30T13:26:40;18.30;98.70
7317;DHT22;3699;51.462;6.696;2022-09-30T13:29:27;18.30;98.50
7317;DHT22;3699;51.462;6.696;2022-09-30T13:32:07;18.20;97.80
7317;DHT22;3699;51.462;6.696;2022-09-30T13:34:54;18.10;99.20
7317;DHT22;3699;51.462;6.696;2022-09-30T13:37:45;18.00;99.90
7317;DHT22;3699;51.462;6.696;2022-09-30T13:40:33;17.90;99.90
7317;DHT22;3699;51.462;6.696;2022-09-30T13:43:02;17.80;99.90
7317;DHT22;3699;51.462;6.696;2022-09-30T13:45:32;17.80;99.90
7317;DHT22;3699;51.462;6.696;2022-09-30T13:48:06;17.80;99.90
7317;DHT22;3699;51.462;6.696;2022-09-30T13:50:39;18.00;99.90
7317;DHT22;3699;51.462;6.696;2022-09-30T13:53:14;18.00;99.90
7317;DHT22;3699;51.462;6.696;2022-09-30T13:55:45;18.00;99.90
7317;DHT22;3699;51.462;6.696;2022-09-30T13:58:48;18.00;99.80
7317;DHT22;3699;51.462;6.696;2022-09-30T14:01:40;18.00;99.90
7317;DHT22;3699;51.462;6.696;2022-09-30T14:04:30;18.00;99.00
7317;DHT22;3699;51.462;6.696;2022-09-30T14:07:06;18.00;99.90
7317;DHT22;3699;51.462;6.696;2022-09-30T14:09:47;18.00;99.70
7317;DHT22;3699;51.462;6.696;2022-09-30T14:12:28;18.10;99.90
7317;DHT22;3699;51.462;6.696;2022-09-30T14:15:26;18.10;98.50
7317;DHT22;3699;51.462;6.696;2022-09-30T14:18:16;18.10;98.40
7317;DHT22;3699;51.462;6.696;2022-09-30T14:20:52;18.10;98.70
7317;DHT22;3699;51.462;6.696;2022-09-30T14:23:23;18.00;98.80
7317;DHT22;3699;51.462;6.696;2022-09-30T14:25:56;17.90;99.90
7317;DHT22;3699;51.462;6.696;2022-09-30T14:28:31;18.00;99.90
7317;DHT22;3699;51.462;6.696;2022-09-30T14:31:01;18.00;99.90
7317;DHT22;3699;51.462;6.696;2022-09-30T14:33:34;18.00;99.90
7317;DHT22;3699;51.462;6.696;2022-09-30T14:36:11;18.00;99.30
7317;DHT22;3699;51.462;6.696;2022-09-30T14:38:43;18.10;98.60
7317;DHT22;3699;51.462;6.696;2022-09-30T14:41:16;18.10;97.70
7317;DHT22;3699;51.462;6.696;2022-09-30T14:43:45;18.10;95.60
7317;DHT22;3699;51.462;6.696;2022-09-30T14:46:23;18.00;96.00
7317;DHT22;3699;51.462;6.696;2022-09-30T14:48:51;18.00;98.90
7317;DHT22;3699;51.462;6.696;2022-09-30T14:51:20;18.00;95.50
7317;DHT22;3699;51.462;6.696;2022-09-30T14:53:53;17.90;94.80
7317;DHT22;3699;51.462;6.696;2022-09-30T14:56:22;17.90;95.70
7317;DHT22;3699;51.462;6.696;2022-09-30T14:58:53;17.80;94.40
7317;DHT22;3699;51.462;6.696;2022-09-30T15:01:22;17.80;95.60
7317;DHT22;3699;51.462;6.696;2022-09-30T15:03:51;17.70;95.40
7317;DHT22;3699;51.462;6.696;2022-09-30T15:06:22;17.60;96.80
7317;DHT22;3699;51.462;6.696;2022-09-30T15:08:50;17.50;96.10
7317;DHT22;3699;51.462;6.696;2022-09-30T15:11:18;17.40;97.00
7317;DHT22;3699;51.462;6.696;2022-09-30T15:13:46;17.40;97.50
7317;DHT22;3699;51.462;6.696;2022-09-30T15:16:26;17.30;97.80
7317;DHT22;3699;51.462;6.696;2022-09-30T15:18:53;17.30;98.00
7317;DHT22;3699;51.462;6.696;2022-09-30T15:21:21;17.30;96.60
7317;DHT22;3699;51.462;6.696;2022-09-30T15:23:50;17.30;96.90
7317;DHT22;3699;51.462;6.696;2022-09-30T15:26:18;17.30;97.60
7317;DHT22;3699;51.462;6.696;2022-09-30T15:28:46;17.30;96.70
7317;DHT22;3699;51.462;6.696;2022-09-30T15:31:19;17.30;97.20
7317;DHT22;3699;51.462;6.696;2022-09-30T15:33:48;17.30;97.70
7317;DHT22;3699;51.462;6.696;2022-09-30T15:36:16;17.30;98.60
7317;DHT22;3699;51.462;6.696;2022-09-30T15:38:46;17.30;97.20
7317;DHT22;3699;51.462;6.696;2022-09-30T15:41:14;17.30;97.90
7317;DHT22;3699;51.462;6.696;2022-09-30T15:43:42;17.30;99.20
7317;DHT22;3699;51.462;6.696;2022-09-30T15:46:31;17.30;99.90
7317;DHT22;3699;51.462;6.696;2022-09-30T15:49:02;17.20;97.90
7317;DHT22;3699;51.462;6.696;2022-09-30T15:51:35;17.20;99.30
7317;DHT22;3699;51.462;6.696;2022-09-30T15:54:29;17.20;98.60
7317;DHT22;3699;51.462;6.696;2022-09-30T15:56:58;17.10;99.00
7317;DHT22;3699;51.462;6.696;2022-09-30T15:59:58;17.00;99.10
7317;DHT22;3699;51.462;6.696;2022-09-30T16:02:27;16.90;98.90
7317;DHT22;3699;51.462;6.696;2022-09-30T16:04:56;16.90;99.60
7317;DHT22;3699;51.462;6.696;2022-09-30T16:07:24;16.80;99.20
7317;DHT22;3699;51.462;6.696;2022-09-30T16:09:53;16.70;98.90
7317;DHT22;3699;51.462;6.696;2022-09-30T16:12:24;16.70;99.10
7317;DHT22;3699;51.462;6.696;2022-09-30T16:14:54;16.70;99.90
7317;DHT22;3699;51.462;6.696;2022-09-30T16:17:24;16.60;99.90
7317;DHT22;3699;51.462;6.696;2022-09-30T16:19:55;16.50;99.90
7317;DHT22;3699;51.462;6.696;2022-09-30T16:22:35;16.50;99.90
7317;DHT22;3699;51.462;6.696;2022-09-30T16:25:08;16.40;99.90
7317;DHT22;3699;51.462;6.696;2022-09-30T16:27:37;16.30;99.90
7317;DHT22;3699;51.462;6.696;2022-09-30T16:30:05;16.30;99.90
7317;DHT22;3699;51.462;6.696;2022-09-30T16:32:36;16.30;99.90
7317;DHT22;3699;51.462;6.696;2022-09-30T16:35:06;16.30;99.90
7317;DHT22;3699;51.462;6.696;2022-09-30T16:37:40;16.10;99.90
7317;DHT22;3699;51.462;6.696;2022-09-30T16:40:15;16.10;99.90
7317;DHT22;3699;51.462;6.696;2022-09-30T16:42:44;16.10;99.90
7317;DHT22;3699;51.462;6.696;2022-09-30T16:45:11;16.00;99.90
7317;DHT22;3699;51.462;6.696;2022-09-30T16:47:39;16.00;99.90
7317;DHT22;3699;51.462;6.696;2022-09-30T16:50:16;15.90;99.90
7317;DHT22;3699;51.462;6.696;2022-09-30T16:52:44;15.80;99.90